Portada
METAR-TAF:

METAR-TAF

Aeroports :

Belgaum, Índia

latitud: 15-51-33N, longitud: 74-37-03E, altitud: 758 m

Observació

L'informe es va fer fa 43 minuts, a les 15:30 UTC
Vent 14 kt del Oest amb ràfegues de 24 kt
Temperatura 23°C
Humitat 94%
Pressió 1009 hPa
Visibilitat: 3000 m
Cel ennuvolat a una alçada de 700 ft
Núvols disperses a una alçada de 1200 ft
Cel ennuvolat a una alçada de 8000 ft
pluja,

METAR: VOBM 251530Z 28014G24KT 3000 -RA BKN007 SCT012 BKN080 23/22 Q1009

Hora: 21:43 (16:13 UTC)

Pronòstic

L'informe es va fer fa 5 hores i 13 minuts, a les 11:00 UTC
Pronòstic vàlid del 25 a les 12 UTC al 25 a les 21 UTC
Vent 10 kt del Oest/Sud-Oest
Visibilitat: 6000 m
Núvols disperses a una alçada de 800 ft
Núvols disperses a una alçada de 1200 ft
Cel ennuvolat a una alçada de 8000 ft
Temporalment
l' 25 a les 12 UTC al 25 a les 18 UTC
Visibilitat: 3000 m
pluja, plugim,

TAF: VOBM 251100Z 2512/2521 25010KT 6000 SCT008 SCT012 BKN080 TEMPO 2512/2518 3000 RA DZ

Observacions i pronòstics meteorològics de més de 4000 aeroports (METAR i TAF).

Les estacions disponibles són els punts grocs i vermells al mapa.

Posi el ratolí al punt desitjat per veure el nom de l'estació.

Feu clic per veure les observacions i els pronòstics meteorològics.

Per canviar el mapa: feu clic els botons verds amb una creu de color negre per apropar; al botó verd amb un guió per allunyar la imatge; o en les fletxes verdes per a mapes adjacents.


METAR-TAF: